sensor_id;sensor_type;location;lat;lon;timestamp;pressure;altitude;pressure_sealevel;temperature;humidity
49397;BME280;35615;41.410;2.194;2022-10-30T00:00:44;102049.69;;;22.79;62.99
49397;BME280;35615;41.410;2.194;2022-10-30T00:03:33;102046.31;;;22.90;62.54
49397;BME280;35615;41.410;2.194;2022-10-30T00:06:08;102043.66;;;22.84;62.77
49397;BME280;35615;41.410;2.194;2022-10-30T00:08:35;102044.53;;;22.86;62.66
49397;BME280;35615;41.410;2.194;2022-10-30T00:11:10;102042.81;;;22.92;62.66
49397;BME280;35615;41.410;2.194;2022-10-30T00:13:45;102044.56;;;22.91;62.65
49397;BME280;35615;41.410;2.194;2022-10-30T00:16:17;102041.00;;;22.84;62.58
49397;BME280;35615;41.410;2.194;2022-10-30T00:18:44;102044.53;;;22.89;62.61
49397;BME280;35615;41.410;2.194;2022-10-30T00:21:14;102045.44;;;22.90;62.41
49397;BME280;35615;41.410;2.194;2022-10-30T00:23:48;102043.66;;;22.89;62.24
49397;BME280;35615;41.410;2.194;2022-10-30T00:26:30;102039.16;;;22.82;62.80
49397;BME280;35615;41.410;2.194;2022-10-30T00:29:12;102047.06;;;22.82;62.46
49397;BME280;35615;41.410;2.194;2022-10-30T00:31:50;102034.84;;;22.84;62.51
49397;BME280;35615;41.410;2.194;2022-10-30T00:34:17;102035.66;;;22.80;62.15
49397;BME280;35615;41.410;2.194;2022-10-30T00:36:45;102029.50;;;22.78;62.51
49397;BME280;35615;41.410;2.194;2022-10-30T00:39:12;102038.22;;;22.72;62.25
49397;BME280;35615;41.410;2.194;2022-10-30T00:41:40;102031.97;;;22.61;62.48
49397;BME280;35615;41.410;2.194;2022-10-30T00:47:22;102035.41;;;22.51;62.33
49397;BME280;35615;41.410;2.194;2022-10-30T00:52:27;102027.44;;;22.43;63.03
49397;BME280;35615;41.410;2.194;2022-10-30T00:55:05;102033.59;;;22.48;62.47
49397;BME280;35615;41.410;2.194;2022-10-30T00:57:37;102026.63;;;22.52;62.12
49397;BME280;35615;41.410;2.194;2022-10-30T01:00:09;102024.78;;;22.43;62.68
49397;BME280;35615;41.410;2.194;2022-10-30T01:02:43;102023.06;;;22.47;62.45
49397;BME280;35615;41.410;2.194;2022-10-30T01:05:21;102019.56;;;22.48;62.61
49397;BME280;35615;41.410;2.194;2022-10-30T01:07:52;102016.91;;;22.46;62.08
49397;BME280;35615;41.410;2.194;2022-10-30T01:10:25;102024.72;;;22.39;62.54
49397;BME280;35615;41.410;2.194;2022-10-30T01:12:59;102023.88;;;22.40;62.63
49397;BME280;35615;41.410;2.194;2022-10-30T01:15:42;102019.41;;;22.32;62.60
49397;BME280;35615;41.410;2.194;2022-10-30T01:18:34;102011.56;;;22.39;62.88
49397;BME280;35615;41.410;2.194;2022-10-30T01:34:52;102008.03;;;22.35;62.52
49397;BME280;35615;41.410;2.194;2022-10-30T01:37:38;102014.19;;;22.39;62.74
49397;BME280;35615;41.410;2.194;2022-10-30T01:40:16;102001.03;;;22.37;62.47
49397;BME280;35615;41.410;2.194;2022-10-30T01:42:51;102003.72;;;22.42;62.14
49397;BME280;35615;41.410;2.194;2022-10-30T01:45:52;102006.28;;;22.36;62.53
49397;BME280;35615;41.410;2.194;2022-10-30T01:54:40;102009.66;;;22.24;62.89
49397;BME280;35615;41.410;2.194;2022-10-30T01:57:35;102015.72;;;22.15;63.20
49397;BME280;35615;41.410;2.194;2022-10-30T02:00:13;102007.88;;;22.20;63.42
49397;BME280;35615;41.410;2.194;2022-10-30T02:02:48;102007.91;;;22.24;62.72
49397;BME280;35615;41.410;2.194;2022-10-30T02:05:42;101999.03;;;22.15;63.43
49397;BME280;35615;41.410;2.194;2022-10-30T02:08:12;102007.81;;;22.14;62.98
49397;BME280;35615;41.410;2.194;2022-10-30T02:10:44;102006.16;;;22.25;62.85
49397;BME280;35615;41.410;2.194;2022-10-30T02:13:16;102005.91;;;22.05;63.60
49397;BME280;35615;41.410;2.194;2022-10-30T02:15:48;102006.75;;;21.99;63.83
49397;BME280;35615;41.410;2.194;2022-10-30T02:18:16;101998.72;;;21.86;64.25
49397;BME280;35615;41.410;2.194;2022-10-30T02:21:01;101998.75;;;21.92;63.91
49397;BME280;35615;41.410;2.194;2022-10-30T02:23:33;101990.81;;;21.87;64.50
49397;BME280;35615;41.410;2.194;2022-10-30T02:26:01;101995.38;;;22.02;63.45
49397;BME280;35615;41.410;2.194;2022-10-30T02:28:29;101989.97;;;21.90;64.22
49397;BME280;35615;41.410;2.194;2022-10-30T02:30:57;102000.59;;;21.97;63.81
49397;BME280;35615;41.410;2.194;2022-10-30T02:33:24;101995.22;;;21.87;64.19
49397;BME280;35615;41.410;2.194;2022-10-30T02:35:52;101992.44;;;21.73;64.61
49397;BME280;35615;41.410;2.194;2022-10-30T02:38:20;101987.31;;;21.85;64.11
49397;BME280;35615;41.410;2.194;2022-10-30T02:40:52;101983.84;;;21.92;63.78
49397;BME280;35615;41.410;2.194;2022-10-30T02:43:22;101991.81;;;21.95;63.49
49397;BME280;35615;41.410;2.194;2022-10-30T02:45:50;101987.19;;;21.76;64.33
49397;BME280;35615;41.410;2.194;2022-10-30T02:48:21;101983.84;;;21.89;63.54
49397;BME280;35615;41.410;2.194;2022-10-30T02:50:50;101984.50;;;21.71;63.89
49397;BME280;35615;41.410;2.194;2022-10-30T02:53:23;101981.84;;;21.70;63.67
49397;BME280;35615;41.410;2.194;2022-10-30T02:56:01;101982.94;;;21.86;63.39
49397;BME280;35615;41.410;2.194;2022-10-30T02:58:31;101988.03;;;21.73;63.33
49397;BME280;35615;41.410;2.194;2022-10-30T03:01:10;101985.19;;;21.57;64.20
49397;BME280;35615;41.410;2.194;2022-10-30T03:03:45;101990.28;;;21.44;64.75
49397;BME280;35615;41.410;2.194;2022-10-30T03:06:15;101984.34;;;21.59;63.83
49397;BME280;35615;41.410;2.194;2022-10-30T03:08:43;101986.63;;;21.32;65.07
49397;BME280;35615;41.410;2.194;2022-10-30T03:11:17;101992.69;;;21.28;64.51
49397;BME280;35615;41.410;2.194;2022-10-30T03:13:47;101986.63;;;21.32;64.91
49397;BME280;35615;41.410;2.194;2022-10-30T03:16:24;101982.38;;;21.40;64.59
49397;BME280;35615;41.410;2.194;2022-10-30T03:19:01;101983.97;;;21.29;65.17
49397;BME280;35615;41.410;2.194;2022-10-30T03:21:40;101979.59;;;21.31;65.04
49397;BME280;35615;41.410;2.194;2022-10-30T03:24:07;101982.41;;;21.44;64.49
49397;BME280;35615;41.410;2.194;2022-10-30T03:26:39;101977.13;;;21.43;64.49
49397;BME280;35615;41.410;2.194;2022-10-30T03:29:07;101975.25;;;21.34;64.62
49397;BME280;35615;41.410;2.194;2022-10-30T03:31:36;101975.28;;;21.36;64.74
49397;BME280;35615;41.410;2.194;2022-10-30T03:34:17;101963.19;;;21.50;63.98
49397;BME280;35615;41.410;2.194;2022-10-30T03:36:47;101964.94;;;21.50;64.16
49397;BME280;35615;41.410;2.194;2022-10-30T03:39:18;101957.09;;;21.53;63.85
49397;BME280;35615;41.410;2.194;2022-10-30T03:41:45;101961.50;;;21.55;63.98
49397;BME280;35615;41.410;2.194;2022-10-30T03:44:16;101965.03;;;21.56;63.81
49397;BME280;35615;41.410;2.194;2022-10-30T03:46:46;101968.63;;;21.62;63.48
49397;BME280;35615;41.410;2.194;2022-10-30T03:49:24;101971.81;;;21.38;63.53
49397;BME280;35615;41.410;2.194;2022-10-30T03:51:58;101972.66;;;21.36;63.24
49397;BME280;35615;41.410;2.194;2022-10-30T03:54:30;101971.59;;;21.25;63.33
49397;BME280;35615;41.410;2.194;2022-10-30T03:57:05;101972.63;;;21.33;63.08
49397;BME280;35615;41.410;2.194;2022-10-30T04:00:17;101980.53;;;21.34;62.50
49397;BME280;35615;41.410;2.194;2022-10-30T04:02:54;101976.09;;;21.32;62.38
49397;BME280;35615;41.410;2.194;2022-10-30T04:05:27;101983.78;;;21.20;62.38
49397;BME280;35615;41.410;2.194;2022-10-30T04:07:58;101984.56;;;21.12;62.28
49397;BME280;35615;41.410;2.194;2022-10-30T04:10:30;101986.31;;;21.13;61.93
49397;BME280;35615;41.410;2.194;2022-10-30T04:13:04;101988.81;;;21.04;62.36
49397;BME280;35615;41.410;2.194;2022-10-30T04:15:35;101989.91;;;21.18;61.98
49397;BME280;35615;41.410;2.194;2022-10-30T04:18:04;101983.81;;;21.21;61.53
49397;BME280;35615;41.410;2.194;2022-10-30T04:20:33;101986.41;;;21.18;61.71
49397;BME280;35615;41.410;2.194;2022-10-30T04:23:03;101980.28;;;21.17;61.80
49397;BME280;35615;41.410;2.194;2022-10-30T04:25:33;101981.97;;;21.17;62.08
49397;BME280;35615;41.410;2.194;2022-10-30T04:28:08;101984.69;;;21.22;61.57
49397;BME280;35615;41.410;2.194;2022-10-30T04:30:37;101994.34;;;21.24;61.66
49397;BME280;35615;41.410;2.194;2022-10-30T04:33:06;101991.50;;;21.07;61.89
49397;BME280;35615;41.410;2.194;2022-10-30T04:35:35;101992.41;;;21.09;61.85
49397;BME280;35615;41.410;2.194;2022-10-30T04:38:12;101982.50;;;20.92;61.63
49397;BME280;35615;41.410;2.194;2022-10-30T04:40:42;101990.56;;;21.05;61.11
49397;BME280;35615;41.410;2.194;2022-10-30T04:43:12;101978.38;;;21.09;61.07
49397;BME280;35615;41.410;2.194;2022-10-30T04:45:42;101985.31;;;21.05;61.10
49397;BME280;35615;41.410;2.194;2022-10-30T04:48:15;101984.25;;;20.91;61.07
49397;BME280;35615;41.410;2.194;2022-10-30T04:50:45;101980.06;;;21.05;60.32
49397;BME280;35615;41.410;2.194;2022-10-30T04:53:20;101979.13;;;21.00;60.25
49397;BME280;35615;41.410;2.194;2022-10-30T04:55:54;101972.88;;;20.94;60.00
49397;BME280;35615;41.410;2.194;2022-10-30T04:58:23;101977.31;;;20.96;59.76
49397;BME280;35615;41.410;2.194;2022-10-30T05:01:03;101968.47;;;20.91;60.02
49397;BME280;35615;41.410;2.194;2022-10-30T05:03:37;101970.22;;;20.91;59.55
49397;BME280;35615;41.410;2.194;2022-10-30T05:06:31;101970.06;;;20.81;59.69
49397;BME280;35615;41.410;2.194;2022-10-30T05:08:59;101974.47;;;20.82;59.86
49397;BME280;35615;41.410;2.194;2022-10-30T05:11:36;101969.69;;;20.57;60.32
49397;BME280;35615;41.410;2.194;2022-10-30T05:14:03;101968.16;;;20.71;60.51
49397;BME280;35615;41.410;2.194;2022-10-30T05:16:31;101966.50;;;20.76;60.32
49397;BME280;35615;41.410;2.194;2022-10-30T05:19:04;101968.34;;;20.83;60.17
49397;BME280;35615;41.410;2.194;2022-10-30T05:21:34;101960.25;;;20.70;60.46
49397;BME280;35615;41.410;2.194;2022-10-30T05:24:01;101970.72;;;20.65;60.10
49397;BME280;35615;41.410;2.194;2022-10-30T05:26:40;101973.53;;;20.79;60.09
49397;BME280;35615;41.410;2.194;2022-10-30T05:29:07;101971.38;;;20.53;60.47
49397;BME280;35615;41.410;2.194;2022-10-30T05:31:35;101966.03;;;20.49;60.52
49397;BME280;35615;41.410;2.194;2022-10-30T05:34:34;101969.47;;;20.43;60.48
49397;BME280;35615;41.410;2.194;2022-10-30T05:37:04;101963.13;;;20.32;60.61
49397;BME280;35615;41.410;2.194;2022-10-30T05:39:32;101967.53;;;20.35;60.21
49397;BME280;35615;41.410;2.194;2022-10-30T05:42:05;101963.00;;;20.26;60.76
49397;BME280;35615;41.410;2.194;2022-10-30T05:44:41;101964.78;;;20.28;60.69
49397;BME280;35615;41.410;2.194;2022-10-30T05:47:32;101965.63;;;20.26;60.65
49397;BME280;35615;41.410;2.194;2022-10-30T05:50:06;101971.94;;;20.37;60.34
49397;BME280;35615;41.410;2.194;2022-10-30T05:52:47;101966.50;;;20.26;60.50
49397;BME280;35615;41.410;2.194;2022-10-30T05:55:15;101968.72;;;20.05;60.81
49397;BME280;35615;41.410;2.194;2022-10-30T05:58:13;101966.22;;;20.10;60.71
49397;BME280;35615;41.410;2.194;2022-10-30T06:00:44;101964.22;;;19.96;60.82
49397;BME280;35615;41.410;2.194;2022-10-30T06:03:16;101968.66;;;20.00;60.83
49397;BME280;35615;41.410;2.194;2022-10-30T06:05:46;101967.72;;;19.97;60.44
49397;BME280;35615;41.410;2.194;2022-10-30T06:08:18;101965.16;;;20.00;60.45
49397;BME280;35615;41.410;2.194;2022-10-30T06:11:09;101968.88;;;20.13;59.93
49397;BME280;35615;41.410;2.194;2022-10-30T06:13:49;101967.13;;;20.13;60.12
49397;BME280;35615;41.410;2.194;2022-10-30T06:16:36;101961.06;;;20.17;59.71
49397;BME280;35615;41.410;2.194;2022-10-30T06:19:33;101963.81;;;20.23;59.77
49397;BME280;35615;41.410;2.194;2022-10-30T06:22:25;101963.00;;;20.26;59.33
49397;BME280;35615;41.410;2.194;2022-10-30T06:25:05;101971.69;;;20.22;59.47
49397;BME280;35615;41.410;2.194;2022-10-30T06:28:09;101978.72;;;20.24;58.96
49397;BME280;35615;41.410;2.194;2022-10-30T06:30:46;101969.88;;;20.18;58.77
49397;BME280;35615;41.410;2.194;2022-10-30T06:33:25;101972.53;;;20.21;58.48
49397;BME280;35615;41.410;2.194;2022-10-30T06:35:59;101977.44;;;20.49;58.50
49397;BME280;35615;41.410;2.194;2022-10-30T06:38:40;101969.25;;;20.34;57.91
49397;BME280;35615;41.410;2.194;2022-10-30T06:41:31;101973.59;;;20.30;58.04
49397;BME280;35615;41.410;2.194;2022-10-30T06:44:45;101973.94;;;20.50;57.77
49397;BME280;35615;41.410;2.194;2022-10-30T06:47:21;101979.31;;;20.58;58.23
49397;BME280;35615;41.410;2.194;2022-10-30T06:49:54;101972.28;;;20.55;57.40
49397;BME280;35615;41.410;2.194;2022-10-30T06:52:40;101981.06;;;20.57;57.23
49397;BME280;35615;41.410;2.194;2022-10-30T06:55:20;101977.59;;;20.58;57.23
49397;BME280;35615;41.410;2.194;2022-10-30T06:58:26;101982.78;;;20.55;57.41
49397;BME280;35615;41.410;2.194;2022-10-30T07:01:15;101984.69;;;20.63;57.06
49397;BME280;35615;41.410;2.194;2022-10-30T07:04:08;101989.78;;;20.53;57.28
49397;BME280;35615;41.410;2.194;2022-10-30T07:06:38;101988.25;;;20.68;56.80
49397;BME280;35615;41.410;2.194;2022-10-30T07:09:15;101987.53;;;20.78;56.96
49397;BME280;35615;41.410;2.194;2022-10-30T07:11:54;101986.47;;;20.65;57.16
49397;BME280;35615;41.410;2.194;2022-10-30T07:14:46;101986.56;;;20.73;56.88
49397;BME280;35615;41.410;2.194;2022-10-30T07:17:29;101988.53;;;20.84;56.65
49397;BME280;35615;41.410;2.194;2022-10-30T07:20:12;101991.25;;;20.92;57.06
49397;BME280;35615;41.410;2.194;2022-10-30T07:23:03;102003.63;;;20.98;56.28
49397;BME280;35615;41.410;2.194;2022-10-30T07:25:37;102003.75;;;21.07;56.27
49397;BME280;35615;41.410;2.194;2022-10-30T07:28:27;102003.78;;;21.10;56.09
49397;BME280;35615;41.410;2.194;2022-10-30T07:31:27;102011.69;;;21.11;55.43
49397;BME280;35615;41.410;2.194;2022-10-30T07:34:36;102009.25;;;21.25;55.45
49397;BME280;35615;41.410;2.194;2022-10-30T07:38:03;102011.88;;;21.24;55.22
49397;BME280;35615;41.410;2.194;2022-10-30T07:40:54;102018.28;;;21.39;54.75
49397;BME280;35615;41.410;2.194;2022-10-30T07:43:44;102016.47;;;21.35;55.03
49397;BME280;35615;41.410;2.194;2022-10-30T07:46:38;102025.22;;;21.34;54.98
49397;BME280;35615;41.410;2.194;2022-10-30T07:49:36;102023.59;;;21.42;54.81
49397;BME280;35615;41.410;2.194;2022-10-30T07:52:14;102025.66;;;21.68;55.30
49397;BME280;35615;41.410;2.194;2022-10-30T07:55:12;102027.25;;;21.55;54.21
49397;BME280;35615;41.410;2.194;2022-10-30T07:57:49;102033.50;;;21.63;54.43
49397;BME280;35615;41.410;2.194;2022-10-30T08:00:29;102035.19;;;21.58;54.37
49397;BME280;35615;41.410;2.194;2022-10-30T08:03:25;102035.41;;;21.75;54.14
49397;BME280;35615;41.410;2.194;2022-10-30T08:06:19;102036.22;;;21.71;54.21
49397;BME280;35615;41.410;2.194;2022-10-30T08:08:54;102040.84;;;21.90;54.20
49397;BME280;35615;41.410;2.194;2022-10-30T08:11:35;102035.34;;;21.70;53.57
49397;BME280;35615;41.410;2.194;2022-10-30T08:14:05;102038.03;;;21.75;54.13
49397;BME280;35615;41.410;2.194;2022-10-30T08:16:40;102039.06;;;21.88;54.37
49397;BME280;35615;41.410;2.194;2022-10-30T08:19:14;102037.06;;;21.68;53.72
49397;BME280;35615;41.410;2.194;2022-10-30T08:21:46;102039.00;;;21.83;53.51
49397;BME280;35615;41.410;2.194;2022-10-30T08:24:26;102040.59;;;21.72;53.74
49397;BME280;35615;41.410;2.194;2022-10-30T08:27:02;102044.31;;;21.85;53.19
49397;BME280;35615;41.410;2.194;2022-10-30T08:29:41;102038.19;;;21.89;53.03
49397;BME280;35615;41.410;2.194;2022-10-30T08:32:10;102048.63;;;21.83;53.22
49397;BME280;35615;41.410;2.194;2022-10-30T08:35:06;102051.25;;;21.81;53.51
49397;BME280;35615;41.410;2.194;2022-10-30T08:37:45;102049.63;;;21.92;52.67
49397;BME280;35615;41.410;2.194;2022-10-30T08:40:17;102049.63;;;21.92;52.97
49397;BME280;35615;41.410;2.194;2022-10-30T08:42:56;102053.28;;;22.03;52.77
49397;BME280;35615;41.410;2.194;2022-10-30T08:45:38;102043.78;;;22.15;52.69
49397;BME280;35615;41.410;2.194;2022-10-30T08:48:23;102044.84;;;22.30;52.41
49397;BME280;35615;41.410;2.194;2022-10-30T08:50:59;102050.19;;;22.38;51.92
49397;BME280;35615;41.410;2.194;2022-10-30T08:53:39;102051.13;;;22.45;51.58
49397;BME280;35615;41.410;2.194;2022-10-30T08:56:18;102037.13;;;22.49;51.23
49397;BME280;35615;41.410;2.194;2022-10-30T08:59:09;102044.25;;;22.60;51.24
49397;BME280;35615;41.410;2.194;2022-10-30T09:01:47;102048.75;;;22.71;50.86
49397;BME280;35615;41.410;2.194;2022-10-30T09:04:23;102043.03;;;23.19;50.59
49397;BME280;35615;41.410;2.194;2022-10-30T09:07:13;102045.94;;;23.65;49.72
49397;BME280;35615;41.410;2.194;2022-10-30T09:10:07;102046.09;;;24.00;47.99
49397;BME280;35615;41.410;2.194;2022-10-30T09:12:37;102045.25;;;24.10;48.82
49397;BME280;35615;41.410;2.194;2022-10-30T09:15:10;102040.88;;;24.20;47.68
49397;BME280;35615;41.410;2.194;2022-10-30T09:17:57;102038.31;;;24.47;47.34
49397;BME280;35615;41.410;2.194;2022-10-30T09:20:37;102035.66;;;24.47;46.67
49397;BME280;35615;41.410;2.194;2022-10-30T09:23:10;102040.09;;;24.54;46.53
49397;BME280;35615;41.410;2.194;2022-10-30T09:25:40;102036.56;;;24.57;46.63
49397;BME280;35615;41.410;2.194;2022-10-30T09:28:36;102043.59;;;24.47;47.86
49397;BME280;35615;41.410;2.194;2022-10-30T09:31:43;102039.22;;;24.61;47.29
49397;BME280;35615;41.410;2.194;2022-10-30T09:34:20;102045.38;;;24.74;46.90
49397;BME280;35615;41.410;2.194;2022-10-30T09:37:09;102044.50;;;24.74;47.42
49397;BME280;35615;41.410;2.194;2022-10-30T09:39:56;102050.66;;;24.68;46.35
49397;BME280;35615;41.410;2.194;2022-10-30T09:42:56;102055.06;;;24.87;46.41
49397;BME280;35615;41.410;2.194;2022-10-30T09:46:31;102048.03;;;25.05;45.96
49397;BME280;35615;41.410;2.194;2022-10-30T09:51:25;102043.50;;;25.74;43.97
49397;BME280;35615;41.410;2.194;2022-10-30T09:54:15;102045.06;;;26.13;43.86
49397;BME280;35615;41.410;2.194;2022-10-30T10:00:06;102035.81;;;26.77;41.84
49397;BME280;35615;41.410;2.194;2022-10-30T10:06:16;102054.91;;;27.20;41.76
49397;BME280;35615;41.410;2.194;2022-10-30T10:09:15;102046.88;;;27.25;40.87
49397;BME280;35615;41.410;2.194;2022-10-30T10:11:53;102057.66;;;27.11;42.42
49397;BME280;35615;41.410;2.194;2022-10-30T10:14:27;102049.84;;;26.89;42.19
49397;BME280;35615;41.410;2.194;2022-10-30T10:16:58;102050.69;;;26.91;42.59
49397;BME280;35615;41.410;2.194;2022-10-30T10:19:32;102057.03;;;26.77;42.70
49397;BME280;35615;41.410;2.194;2022-10-30T10:22:09;102058.06;;;26.56;43.20
49397;BME280;35615;41.410;2.194;2022-10-30T10:24:42;102058.09;;;26.53;43.62
49397;BME280;35615;41.410;2.194;2022-10-30T10:27:57;102059.03;;;26.44;43.44
49397;BME280;35615;41.410;2.194;2022-10-30T10:30:41;102055.44;;;26.54;43.37
49397;BME280;35615;41.410;2.194;2022-10-30T10:33:29;102052.00;;;26.42;43.43
49397;BME280;35615;41.410;2.194;2022-10-30T10:39:12;102049.19;;;26.60;43.32
49397;BME280;35615;41.410;2.194;2022-10-30T10:44:48;102049.66;;;27.14;43.04
49397;BME280;35615;41.410;2.194;2022-10-30T10:50:36;102047.25;;;27.74;42.00
49397;BME280;35615;41.410;2.194;2022-10-30T10:56:02;102051.72;;;28.38;41.07
49397;BME280;35615;41.410;2.194;2022-10-30T10:58:54;102048.66;;;28.64;40.05
49397;BME280;35615;41.410;2.194;2022-10-30T11:01:38;102035.19;;;28.73;40.85
49397;BME280;35615;41.410;2.194;2022-10-30T11:06:41;102041.06;;;29.41;39.95
49397;BME280;35615;41.410;2.194;2022-10-30T11:09:17;102029.34;;;29.95;39.98
49397;BME280;35615;41.410;2.194;2022-10-30T11:11:50;102029.97;;;30.07;38.70
49397;BME280;35615;41.410;2.194;2022-10-30T11:14:37;102032.38;;;30.55;38.93
49397;BME280;35615;41.410;2.194;2022-10-30T11:20:00;102026.91;;;30.24;38.34
49397;BME280;35615;41.410;2.194;2022-10-30T11:22:37;102018.91;;;30.61;38.13
49397;BME280;35615;41.410;2.194;2022-10-30T11:25:21;102021.59;;;30.60;38.04
49397;BME280;35615;41.410;2.194;2022-10-30T11:27:58;102020.88;;;30.89;37.43
49397;BME280;35615;41.410;2.194;2022-10-30T11:30:30;102014.09;;;31.42;37.78
49397;BME280;35615;41.410;2.194;2022-10-30T11:33:25;102012.84;;;31.85;35.21
49397;BME280;35615;41.410;2.194;2022-10-30T11:36:09;102005.72;;;32.42;35.01
49397;BME280;35615;41.410;2.194;2022-10-30T11:38:42;101999.72;;;32.61;35.48
49397;BME280;35615;41.410;2.194;2022-10-30T11:41:12;102002.38;;;32.88;34.64
49397;BME280;35615;41.410;2.194;2022-10-30T11:43:50;102001.63;;;33.09;34.10
49397;BME280;35615;41.410;2.194;2022-10-30T11:46:40;101990.44;;;32.72;34.82
49397;BME280;35615;41.410;2.194;2022-10-30T11:52:05;101975.44;;;33.42;34.32
49397;BME280;35615;41.410;2.194;2022-10-30T11:54:55;101983.72;;;33.60;33.42
49397;BME280;35615;41.410;2.194;2022-10-30T12:00:12;101985.53;;;33.58;33.59
49397;BME280;35615;41.410;2.194;2022-10-30T12:06:53;101979.97;;;34.09;32.81
49397;BME280;35615;41.410;2.194;2022-10-30T12:09:41;101979.34;;;32.84;34.33
49397;BME280;35615;41.410;2.194;2022-10-30T12:12:41;101972.16;;;32.58;34.90
49397;BME280;35615;41.410;2.194;2022-10-30T12:15:46;101969.09;;;32.44;35.30
49397;BME280;35615;41.410;2.194;2022-10-30T12:18:34;101970.16;;;31.84;36.16
49397;BME280;35615;41.410;2.194;2022-10-30T12:21:38;101970.84;;;31.59;36.69
49397;BME280;35615;41.410;2.194;2022-10-30T12:24:35;101965.09;;;31.43;37.12
49397;BME280;35615;41.410;2.194;2022-10-30T12:27:21;101960.53;;;31.16;37.49
49397;BME280;35615;41.410;2.194;2022-10-30T12:30:15;101967.31;;;30.97;37.52
49397;BME280;35615;41.410;2.194;2022-10-30T12:33:11;101964.38;;;31.06;37.58
49397;BME280;35615;41.410;2.194;2022-10-30T12:35:59;101955.50;;;31.04;37.87
49397;BME280;35615;41.410;2.194;2022-10-30T12:42:00;101954.69;;;30.69;38.25
49397;BME280;35615;41.410;2.194;2022-10-30T12:45:05;101946.53;;;30.75;38.50
49397;BME280;35615;41.410;2.194;2022-10-30T12:47:55;101941.94;;;30.80;38.74
49397;BME280;35615;41.410;2.194;2022-10-30T12:56:51;101929.59;;;30.42;39.69
49397;BME280;35615;41.410;2.194;2022-10-30T12:59:45;101927.75;;;30.44;39.34
49397;BME280;35615;41.410;2.194;2022-10-30T13:14:25;101911.50;;;31.20;38.55
49397;BME280;35615;41.410;2.194;2022-10-30T13:17:09;101911.53;;;31.77;37.52
49397;BME280;35615;41.410;2.194;2022-10-30T13:19:53;101913.16;;;32.38;37.06
49397;BME280;35615;41.410;2.194;2022-10-30T13:22:32;101899.50;;;32.45;36.78
49397;BME280;35615;41.410;2.194;2022-10-30T13:28:24;101899.94;;;33.08;33.86
49397;BME280;35615;41.410;2.194;2022-10-30T13:31:35;101902.66;;;33.30;33.29
49397;BME280;35615;41.410;2.194;2022-10-30T13:40:40;101890.16;;;33.30;34.35
49397;BME280;35615;41.410;2.194;2022-10-30T13:43:34;101895.31;;;33.11;33.93
49397;BME280;35615;41.410;2.194;2022-10-30T13:52:48;101904.81;;;32.97;35.14
49397;BME280;35615;41.410;2.194;2022-10-30T13:55:49;101896.50;;;33.04;35.24
49397;BME280;35615;41.410;2.194;2022-10-30T14:08:42;101896.50;;;32.28;37.27
49397;BME280;35615;41.410;2.194;2022-10-30T14:11:29;101893.25;;;31.92;38.26
49397;BME280;35615;41.410;2.194;2022-10-30T14:14:22;101890.03;;;31.80;38.39
49397;BME280;35615;41.410;2.194;2022-10-30T14:17:16;101899.34;;;31.67;38.61
49397;BME280;35615;41.410;2.194;2022-10-30T14:23:10;101887.00;;;31.35;39.10
49397;BME280;35615;41.410;2.194;2022-10-30T14:25:40;101883.94;;;31.47;39.32
49397;BME280;35615;41.410;2.194;2022-10-30T14:28:51;101883.06;;;31.17;39.26
49397;BME280;35615;41.410;2.194;2022-10-30T14:32:02;101883.59;;;31.30;39.39
49397;BME280;35615;41.410;2.194;2022-10-30T14:45:30;101880.28;;;30.24;41.87
49397;BME280;35615;41.410;2.194;2022-10-30T14:48:58;101879.03;;;30.02;42.21
49397;BME280;35615;41.410;2.194;2022-10-30T14:52:04;101868.09;;;30.14;41.89
49397;BME280;35615;41.410;2.194;2022-10-30T14:55:24;101868.19;;;29.74;43.37
49397;BME280;35615;41.410;2.194;2022-10-30T14:58:24;101863.16;;;29.62;43.70
49397;BME280;35615;41.410;2.194;2022-10-30T15:08:10;101872.75;;;29.29;44.25
49397;BME280;35615;41.410;2.194;2022-10-30T15:14:40;101880.69;;;29.30;44.42
49397;BME280;35615;41.410;2.194;2022-10-30T15:21:30;101878.91;;;28.86;45.64
49397;BME280;35615;41.410;2.194;2022-10-30T15:24:30;101883.56;;;28.75;45.75
49397;BME280;35615;41.410;2.194;2022-10-30T15:27:33;101884.66;;;28.64;46.01
49397;BME280;35615;41.410;2.194;2022-10-30T15:31:01;101885.50;;;28.14;47.78
49397;BME280;35615;41.410;2.194;2022-10-30T15:33:55;101887.06;;;27.73;48.68
49397;BME280;35615;41.410;2.194;2022-10-30T15:37:01;101887.50;;;28.00;48.16
49397;BME280;35615;41.410;2.194;2022-10-30T15:40:21;101887.44;;;28.03;48.13
49397;BME280;35615;41.410;2.194;2022-10-30T15:43:32;101890.59;;;27.71;48.81
49397;BME280;35615;41.410;2.194;2022-10-30T15:47:00;101895.00;;;27.73;48.84
49397;BME280;35615;41.410;2.194;2022-10-30T15:50:23;101894.09;;;27.76;48.95
49397;BME280;35615;41.410;2.194;2022-10-30T15:54:00;101896.00;;;27.66;49.07
49397;BME280;35615;41.410;2.194;2022-10-30T15:57:15;101900.50;;;27.58;49.79
49397;BME280;35615;41.410;2.194;2022-10-30T16:00:33;101901.63;;;27.42;50.67
49397;BME280;35615;41.410;2.194;2022-10-30T16:03:58;101888.59;;;27.22;51.04
49397;BME280;35615;41.410;2.194;2022-10-30T16:11:15;101898.53;;;27.08;51.39
49397;BME280;35615;41.410;2.194;2022-10-30T16:14:26;101894.19;;;26.96;51.69
49397;BME280;35615;41.410;2.194;2022-10-30T16:21:46;101903.28;;;26.75;52.80
49397;BME280;35615;41.410;2.194;2022-10-30T16:24:49;101896.19;;;26.76;52.47
49397;BME280;35615;41.410;2.194;2022-10-30T16:27:54;101905.91;;;26.77;52.42
49397;BME280;35615;41.410;2.194;2022-10-30T16:30:48;101896.97;;;26.82;52.17
49397;BME280;35615;41.410;2.194;2022-10-30T16:36:22;101898.06;;;26.66;52.56
49397;BME280;35615;41.410;2.194;2022-10-30T16:39:05;101891.97;;;26.56;53.17